Weather at UNFICYP OP95 Heliport

Public forecast

Using degrees Celsius for public forecast. Weather courtesy of forecast.io.

Closest aviation weather report (METAR) to UNFICYP OP95 Heliport

Closest report is Nicosia (Lefkoşa) Ercan International Airport, 8.8 nm (16.4 km) NNE.

2024/06/20 19:50 (retrieved 19 minutes ago)

LCEN 201950Z 27011KT CAVOK 27/20 Q1006 NOSIG

Closest aviation forecast (TAF) to UNFICYP OP95 Heliport

Closest forecast is Nicosia (Lefkoşa) Ercan International Airport, 8.8 nm (16.4 km) NNE.

2024/06/20 18:03 (retrieved 2 hours ago)

TAF LCEN 201640Z 2018/2118 28015KT 9999 FEW020 TEMPO 2100/2104 VRB02KT 1200 BCFG BKN010